Time;durP1;ratioP1;P1;durP2;ratioP2;P2;SDS_P1;SDS_P2;PMS_P1;PMS_P2;Temp;Humidity;BMP_temperature;BMP_pressure;BME280_temperature;BME280_humidity;BME280_pressure;Samples;Min_cycle;Max_cycle;Signal;HPM_P1;HPM_P2
2021/03/05 00:01:32;;;;;;;21.73;4.30;;;;;;;2.59;66.07;102239.84;5092679;28;20063;-63
2021/03/05 00:03:57;;;;;;;20.23;4.13;;;;;;;2.56;67.03;102238.75;5092876;28;20024;-65
2021/03/05 00:06:23;;;;;;;21.05;4.25;;;;;;;2.65;65.61;102243.59;5092450;28;20526;-63
2021/03/05 00:08:48;;;;;;;21.20;4.18;;;;;;;2.57;67.18;102244.06;5092593;28;20038;-64
2021/03/05 00:11:13;;;;;;;19.23;4.30;;;;;;;2.57;67.24;102251.88;5092329;28;20067;-63
2021/03/05 00:13:39;;;;;;;19.88;4.25;;;;;;;2.58;67.71;102255.41;5092341;28;20063;-61
2021/03/05 00:16:04;;;;;;;21.50;4.10;;;;;;;2.56;67.67;102268.38;5102367;28;20071;-64
2021/03/05 00:18:29;;;;;;;22.95;4.47;;;;;;;2.55;68.18;102273.47;5103613;28;20132;-61
2021/03/05 00:20:55;;;;;;;21.17;4.00;;;;;;;2.58;67.53;102273.69;5100954;28;20036;-61
2021/03/05 00:23:21;;;;;;;20.60;3.90;;;;;;;2.50;68.13;102278.44;5104672;28;20030;-63
2021/03/05 00:25:48;;;;;;;23.35;4.18;;;;;;;2.48;68.49;102271.34;5101359;28;20065;-64
2021/03/05 00:28:14;;;;;;;21.17;4.53;;;;;;;2.50;68.48;102285.38;5092221;28;20035;-65
2021/03/05 00:30:39;;;;;;;21.13;4.10;;;;;;;2.50;68.87;102285.38;5102562;28;20032;-66
2021/03/05 00:33:05;;;;;;;22.33;4.00;;;;;;;2.49;69.32;102279.25;5102912;28;20407;-65
2021/03/05 00:35:31;;;;;;;20.65;4.53;;;;;;;2.51;69.36;102281.97;5091332;28;20017;-65
2021/03/05 00:37:56;;;;;;;22.55;4.05;;;;;;;2.51;69.11;102279.34;5093295;28;20050;-60
2021/03/05 00:40:23;;;;;;;19.70;4.18;;;;;;;2.51;69.85;102279.34;5102380;28;20524;-60
2021/03/05 00:42:49;;;;;;;23.85;4.88;;;;;;;2.53;69.31;102285.56;5092192;28;20028;-60
2021/03/05 00:45:17;;;;;;;20.65;3.97;;;;;;;2.52;69.68;102286.34;5102309;28;20114;-60
2021/03/05 00:47:42;;;;;;;21.38;4.45;;;;;;;2.55;69.94;102286.53;5102724;28;20027;-64
2021/03/05 00:50:10;;;;;;;18.90;4.10;;;;;;;2.59;69.53;102291.13;5100573;28;20048;-60
2021/03/05 00:52:36;;;;;;;23.23;4.53;;;;;;;2.66;68.29;102290.69;5104437;28;20028;-64
2021/03/05 00:55:02;;;;;;;24.13;4.57;;;;;;;2.58;69.22;102286.75;5092166;28;20024;-61
2021/03/05 00:57:27;;;;;;;21.45;4.32;;;;;;;2.67;68.79;102299.47;5086953;28;20550;-63
2021/03/05 00:59:52;;;;;;;23.95;4.28;;;;;;;2.61;69.69;102298.25;5105271;28;20034;-64
2021/03/05 01:02:18;;;;;;;21.77;4.20;;;;;;;2.62;69.46;102299.16;5095588;28;20080;-62
2021/03/05 01:04:43;;;;;;;21.25;4.40;;;;;;;2.63;69.68;102303.56;5105176;28;20024;-65
2021/03/05 01:07:09;;;;;;;22.77;5.32;;;;;;;2.58;70.08;102305.91;5104682;28;20450;-61
2021/03/05 01:09:34;;;;;;;22.00;5.13;;;;;;;2.52;70.99;102308.16;5096314;28;20071;-61
2021/03/05 01:12:00;;;;;;;23.92;5.35;;;;;;;2.53;71.24;102306.44;5086912;28;20031;-62
2021/03/05 01:14:25;;;;;;;23.02;5.47;;;;;;;2.48;71.95;102310.50;5095417;28;20024;-63
2021/03/05 01:16:51;;;;;;;23.50;5.68;;;;;;;2.47;72.00;102319.13;5104475;28;20027;-61
2021/03/05 01:19:16;;;;;;;22.25;5.93;;;;;;;2.43;72.77;102312.81;5107117;28;20023;-61
2021/03/05 01:21:42;;;;;;;23.10;6.35;;;;;;;2.46;72.82;102317.31;5095221;28;20020;-61
2021/03/05 01:24:08;;;;;;;24.33;6.55;;;;;;;2.46;73.02;102315.59;5095200;28;20036;-61
2021/03/05 01:26:34;;;;;;;26.48;7.05;;;;;;;2.47;73.39;102321.75;5106328;28;20031;-61
2021/03/05 01:29:00;;;;;;;24.23;6.70;;;;;;;2.49;73.17;102314.88;5104811;28;20036;-62
2021/03/05 01:31:26;;;;;;;24.13;6.88;;;;;;;2.50;73.31;102320.22;5095060;28;20062;-63
2021/03/05 01:33:52;;;;;;;24.17;7.68;;;;;;;2.47;74.28;102314.81;5104347;28;20019;-65
2021/03/05 01:36:17;;;;;;;24.08;7.03;;;;;;;2.47;74.00;102313.91;5106844;28;20024;-63
2021/03/05 01:38:43;;;;;;;23.25;7.53;;;;;;;2.47;74.03;102319.13;5095211;28;20375;-61
2021/03/05 01:41:08;;;;;;;26.55;8.55;;;;;;;2.47;74.79;102317.41;5106672;28;20022;-62
2021/03/05 01:43:38;;;;;;;25.15;8.43;;;;;;;2.50;74.41;102314.09;5104278;28;20023;-62
2021/03/05 01:46:03;;;;;;;23.90;8.35;;;;;;;2.51;74.64;102314.19;5105905;28;20103;-61
2021/03/05 01:48:30;;;;;;;25.02;8.80;;;;;;;2.54;73.76;102316.09;5105120;28;20119;-62
2021/03/05 01:51:12;;;;;;;25.77;9.13;;;;;;;2.49;74.10;102318.44;5104286;28;20090;-68
2021/03/05 01:53:39;;;;;;;25.83;9.48;;;;;;;2.44;75.07;102323.34;5103468;28;20479;-68
2021/03/05 01:56:06;;;;;;;26.10;9.18;;;;;;;2.39;75.15;102324.78;5094542;28;20036;-66
2021/03/05 01:58:33;;;;;;;25.23;9.73;;;;;;;2.37;75.27;102321.16;5105463;28;20030;-67
2021/03/05 02:01:07;;;;;;;24.92;9.43;;;;;;;2.37;75.50;102312.44;5104641;28;20451;-67
2021/03/05 02:03:32;;;;;;;26.70;9.55;;;;;;;2.39;75.50;102318.69;5094337;28;20036;-68
2021/03/05 02:05:58;;;;;;;27.02;10.18;;;;;;;2.33;75.25;102319.19;5094840;28;20074;-67
2021/03/05 02:08:24;;;;;;;25.73;9.60;;;;;;;2.20;75.59;102324.44;5094170;28;20016;-68
2021/03/05 02:10:49;;;;;;;26.83;9.68;;;;;;;2.12;75.72;102315.25;5103091;28;20031;-67
2021/03/05 02:13:15;;;;;;;27.75;10.35;;;;;;;2.03;76.29;102320.81;5106426;28;20024;-69
2021/03/05 02:15:41;;;;;;;25.80;9.95;;;;;;;1.97;76.29;102333.47;5102671;28;20115;-67
2021/03/05 02:18:15;;;;;;;28.00;10.57;;;;;;;1.85;76.94;102330.94;5094009;28;20031;-67
2021/03/05 02:21:10;;;;;;;27.35;10.43;;;;;;;1.79;76.72;102338.41;5106181;28;20066;-68
2021/03/05 02:24:15;;;;;;;27.08;10.25;;;;;;;1.81;76.19;102349.84;5030779;28;20041;-66
2021/03/05 02:27:12;;;;;;;27.48;11.05;;;;;;;1.88;77.04;102352.03;5027513;28;20073;-67
2021/03/05 02:30:21;;;;;;;27.48;10.77;;;;;;;1.99;76.36;102360.53;4968304;28;20525;-67
2021/03/05 02:33:13;;;;;;;28.70;11.85;;;;;;;1.98;76.47;102367.47;4972726;28;20057;-67
2021/03/05 02:35:41;;;;;;;27.13;11.50;;;;;;;1.98;76.75;102377.91;4972748;28;20035;-67
2021/03/05 02:38:10;;;;;;;29.02;11.90;;;;;;;1.95;76.67;102382.91;4972943;28;20070;-67
2021/03/05 02:40:41;;;;;;;28.75;11.90;;;;;;;1.95;76.22;102375.06;4972610;28;20401;-67
2021/03/05 02:43:10;;;;;;;27.15;11.27;;;;;;;1.89;76.60;102374.69;4972604;28;20125;-67
2021/03/05 02:45:41;;;;;;;28.58;11.88;;;;;;;1.82;76.88;102373.41;4972523;28;20030;-67
2021/03/05 02:48:11;;;;;;;28.38;12.02;;;;;;;1.81;76.60;102376.81;4972510;28;20046;-66
2021/03/05 02:50:40;;;;;;;28.50;12.30;;;;;;;1.76;76.53;102377.31;4972310;28;20090;-65
2021/03/05 02:53:10;;;;;;;27.55;11.93;;;;;;;1.71;76.65;102385.75;4972254;28;20043;-65
2021/03/05 02:55:37;;;;;;;29.08;12.10;;;;;;;1.65;76.58;102387.94;4972603;28;20110;-64
2021/03/05 02:58:05;;;;;;;29.05;12.27;;;;;;;1.50;76.82;102393.06;4972191;28;20039;-65
2021/03/05 03:00:31;;;;;;;27.65;11.75;;;;;;;1.34;77.22;102388.53;4995362;28;20052;-65
2021/03/05 03:02:58;;;;;;;27.67;11.80;;;;;;;1.26;77.22;102392.34;5021169;28;20087;-65
2021/03/05 03:05:26;;;;;;;26.70;11.32;;;;;;;1.03;77.87;102396.00;5025189;28;20042;-65
2021/03/05 03:07:52;;;;;;;27.17;11.45;;;;;;;0.89;78.29;102399.34;5093551;28;20024;-64
2021/03/05 03:10:21;;;;;;;27.33;11.35;;;;;;;0.74;78.54;102407.03;5101778;28;20028;-64
2021/03/05 03:12:46;;;;;;;27.85;11.65;;;;;;;0.63;78.91;102415.00;5105161;28;20034;-65
2021/03/05 03:15:15;;;;;;;28.30;12.02;;;;;;;0.53;79.44;102407.34;5097429;28;20028;-65
2021/03/05 03:17:45;;;;;;;28.65;11.75;;;;;;;0.41;79.48;102412.59;5092930;28;20028;-66
2021/03/05 03:20:17;;;;;;;29.50;12.60;;;;;;;0.33;79.67;102409.41;5092663;28;20119;-65
2021/03/05 03:22:43;;;;;;;28.30;12.48;;;;;;;0.27;79.92;102418.50;5097325;28;20024;-65
2021/03/05 03:25:09;;;;;;;28.10;11.73;;;;;;;0.23;80.06;102414.75;5104269;28;20165;-64
2021/03/05 03:27:35;;;;;;;28.25;12.20;;;;;;;0.14;80.16;102416.72;5102495;28;20487;-65
2021/03/05 03:30:00;;;;;;;30.23;12.40;;;;;;;0.08;80.38;102421.47;5092984;28;20132;-65
2021/03/05 03:32:26;;;;;;;29.42;12.45;;;;;;;0.02;80.04;102421.06;5102798;28;20031;-65
2021/03/05 03:34:52;;;;;;;29.40;12.02;;;;;;;-0.08;80.28;102429.88;5104265;28;20107;-65
2021/03/05 03:37:18;;;;;;;29.05;12.20;;;;;;;-0.13;80.63;102433.81;5093056;28;20107;-65
2021/03/05 03:39:44;;;;;;;28.60;11.88;;;;;;;-0.14;80.60;102435.53;5101498;28;20032;-65
2021/03/05 03:42:09;;;;;;;27.98;11.32;;;;;;;-0.21;80.94;102439.34;5104534;28;20029;-65
2021/03/05 03:44:34;;;;;;;29.70;12.02;;;;;;;-0.27;80.88;102432.81;5102084;28;20024;-65
2021/03/05 03:47:00;;;;;;;28.55;12.18;;;;;;;-0.32;81.16;102439.34;5092688;28;20020;-66
2021/03/05 03:49:27;;;;;;;29.63;12.50;;;;;;;-0.40;81.63;102431.00;5092841;28;20032;-64
2021/03/05 03:51:58;;;;;;;28.42;12.00;;;;;;;-0.45;81.74;102442.72;5082979;28;20040;-65
2021/03/05 03:54:25;;;;;;;28.00;12.35;;;;;;;-0.50;81.72;102439.81;5103416;28;20020;-66
2021/03/05 03:56:53;;;;;;;28.63;12.10;;;;;;;-0.54;81.59;102445.56;5092673;28;20486;-65
2021/03/05 03:59:20;;;;;;;28.55;11.98;;;;;;;-0.54;81.68;102442.94;5101257;28;20036;-65
2021/03/05 04:01:49;;;;;;;29.55;12.50;;;;;;;-0.61;82.30;102443.28;5104734;28;20023;-66
2021/03/05 04:04:16;;;;;;;29.58;12.43;;;;;;;-0.63;82.68;102452.66;5097222;28;20023;-66
2021/03/05 04:06:46;;;;;;;30.75;12.88;;;;;;;-0.68;82.27;102454.00;5092445;28;20426;-65
2021/03/05 04:09:12;;;;;;;28.00;11.45;;;;;;;-0.71;82.30;102455.59;5104075;28;20019;-65
2021/03/05 04:11:40;;;;;;;32.47;13.50;;;;;;;-0.80;82.16;102461.75;5101894;28;20074;-64
2021/03/05 04:14:06;;;;;;;28.90;12.02;;;;;;;-0.86;82.94;102459.59;5092344;28;20028;-64
2021/03/05 04:16:31;;;;;;;31.73;12.70;;;;;;;-0.91;83.04;102467.03;5102883;28;20024;-66
2021/03/05 04:18:57;;;;;;;31.50;12.70;;;;;;;-0.94;82.62;102471.13;5103145;28;20015;-59
2021/03/05 04:21:27;;;;;;;32.78;13.02;;;;;;;-0.97;83.35;102470.88;5101431;28;20016;-60
2021/03/05 04:23:53;;;;;;;29.63;12.27;;;;;;;-1.00;83.07;102470.66;5103380;28;20028;-60
2021/03/05 04:26:18;;;;;;;30.20;12.38;;;;;;;-1.03;82.81;102481.69;5092697;28;20462;-60
2021/03/05 04:28:43;;;;;;;29.13;12.07;;;;;;;-1.06;83.12;102484.94;5100912;28;20020;-59
2021/03/05 04:31:09;;;;;;;30.95;11.80;;;;;;;-1.11;82.95;102493.16;5074109;28;20442;-62
2021/03/05 04:33:35;;;;;;;29.67;12.65;;;;;;;-1.12;83.30;102492.25;5107100;28;20028;-60
2021/03/05 04:36:01;;;;;;;31.38;12.57;;;;;;;-1.13;83.59;102490.44;5106193;28;20030;-60
2021/03/05 04:38:26;;;;;;;31.67;12.52;;;;;;;-1.14;83.86;102498.13;5096080;28;20024;-61
2021/03/05 04:40:52;;;;;;;29.48;11.70;;;;;;;-1.18;83.52;102502.19;5096104;28;20545;-60
2021/03/05 04:43:17;;;;;;;31.13;12.85;;;;;;;-1.22;83.93;102497.53;5104639;28;20030;-59
2021/03/05 04:45:43;;;;;;;31.25;13.25;;;;;;;-1.27;84.05;102504.03;5100410;28;20451;-59
2021/03/05 04:48:09;;;;;;;30.33;12.98;;;;;;;-1.30;84.07;102502.09;5095949;28;20057;-62
2021/03/05 04:50:34;;;;;;;31.00;12.32;;;;;;;-1.31;84.44;102502.91;5106383;28;20135;-60
2021/03/05 04:52:59;;;;;;;31.95;12.93;;;;;;;-1.34;84.35;102504.31;5106103;28;20027;-61
2021/03/05 04:55:25;;;;;;;30.88;12.13;;;;;;;-1.37;83.77;102510.16;5096085;28;20080;-59
2021/03/05 04:57:50;;;;;;;30.85;12.57;;;;;;;-1.39;83.94;102521.25;5104750;28;20028;-60
2021/03/05 05:00:15;;;;;;;31.38;12.45;;;;;;;-1.40;83.63;102520.31;5107903;28;20032;-60
2021/03/05 05:02:41;;;;;;;29.92;11.80;;;;;;;-1.44;83.93;102519.19;5104609;28;20062;-59
2021/03/05 05:05:06;;;;;;;29.75;12.00;;;;;;;-1.48;84.32;102522.31;5095469;28;20028;-59
2021/03/05 05:07:31;;;;;;;30.50;12.57;;;;;;;-1.51;84.02;102521.16;5106340;28;20032;-59
2021/03/05 05:09:57;;;;;;;28.80;11.43;;;;;;;-1.56;83.88;102522.47;5106284;28;20397;-59
2021/03/05 05:12:22;;;;;;;29.70;11.88;;;;;;;-1.61;84.30;102522.09;5095223;28;20052;-60
2021/03/05 05:14:47;;;;;;;29.13;11.75;;;;;;;-1.67;84.15;102524.22;5095627;28;20103;-59
2021/03/05 05:17:13;;;;;;;31.05;11.77;;;;;;;-1.69;84.27;102536.13;5099861;28;20043;-65
2021/03/05 05:19:38;;;;;;;28.02;11.73;;;;;;;-1.71;83.89;102537.72;5095472;28;20060;-66
2021/03/05 05:22:04;;;;;;;27.20;10.70;;;;;;;-1.74;83.94;102532.28;5106008;28;20027;-65
2021/03/05 05:24:29;;;;;;;30.05;11.10;;;;;;;-1.77;83.54;102543.31;5105623;28;20077;-65
2021/03/05 05:26:55;;;;;;;28.08;11.13;;;;;;;-1.81;84.10;102551.59;5095482;28;20398;-65
2021/03/05 05:29:20;;;;;;;29.42;11.40;;;;;;;-1.85;83.57;102540.09;5103844;28;20474;-65
2021/03/05 05:31:46;;;;;;;28.63;11.35;;;;;;;-1.83;83.50;102545.41;5107020;28;20024;-65
2021/03/05 05:34:11;;;;;;;28.38;11.02;;;;;;;-1.86;83.61;102546.03;5103720;28;20028;-64
2021/03/05 05:36:37;;;;;;;26.88;10.85;;;;;;;-1.90;83.78;102559.53;5105980;28;20028;-66
2021/03/05 05:39:02;;;;;;;26.80;10.55;;;;;;;-1.93;83.62;102556.69;5104867;28;20030;-65
2021/03/05 05:41:28;;;;;;;27.35;10.57;;;;;;;-1.95;83.88;102553.97;5104895;28;20024;-65
2021/03/05 05:43:53;;;;;;;28.77;11.25;;;;;;;-1.97;83.85;102565.00;5105581;28;20106;-64
2021/03/05 05:46:22;;;;;;;28.05;10.68;;;;;;;-2.03;83.58;102560.19;5094628;28;20032;-65
2021/03/05 05:48:49;;;;;;;28.20;10.77;;;;;;;-2.05;83.88;102576.41;5095021;28;20382;-65
2021/03/05 05:51:21;;;;;;;29.02;10.85;;;;;;;-2.09;83.63;102580.44;5098926;28;20130;-65
2021/03/05 05:53:46;;;;;;;27.17;10.23;;;;;;;-2.12;83.49;102578.50;5099364;28;20106;-64
2021/03/05 05:56:17;;;;;;;26.25;10.45;;;;;;;-2.14;83.26;102592.09;5076197;28;20282;-65
2021/03/05 05:58:46;;;;;;;27.63;10.68;;;;;;;-2.15;83.36;102587.72;5106437;28;20047;-65
2021/03/05 06:01:12;;;;;;;28.77;10.50;;;;;;;-2.17;83.24;102582.41;5103260;28;20027;-64
2021/03/05 06:03:39;;;;;;;26.55;10.20;;;;;;;-2.22;83.90;102588.88;5094741;28;20024;-65
2021/03/05 06:06:05;;;;;;;28.35;10.32;;;;;;;-2.27;83.58;102592.78;5105155;28;20470;-66
2021/03/05 06:08:31;;;;;;;27.83;10.60;;;;;;;-2.29;83.55;102591.72;5104615;28;20038;-65
2021/03/05 06:10:56;;;;;;;27.83;10.15;;;;;;;-2.32;83.58;102605.31;5094165;28;20047;-66
2021/03/05 06:13:26;;;;;;;28.35;10.43;;;;;;;-2.33;83.51;102606.13;5103206;28;20478;-66
2021/03/05 06:16:11;;;;;;;27.10;10.35;;;;;;;-2.35;82.84;102606.75;5105832;28;20027;-65
2021/03/05 06:18:36;;;;;;;26.67;9.77;;;;;;;-2.37;83.32;102610.91;5105020;28;20016;-59
2021/03/05 06:21:02;;;;;;;26.70;10.13;;;;;;;-2.39;83.27;102613.34;5088181;28;20028;-61
2021/03/05 06:23:27;;;;;;;27.95;10.00;;;;;;;-2.37;83.55;102621.28;5073551;28;20082;-61
2021/03/05 06:25:59;;;;;;;25.10;9.13;;;;;;;-2.36;83.18;102615.28;5073532;28;20020;-60
2021/03/05 06:28:26;;;;;;;26.50;9.95;;;;;;;-2.35;82.97;102622.31;5090536;28;20360;-61
2021/03/05 06:30:51;;;;;;;26.70;9.40;;;;;;;-2.36;82.86;102629.19;5092006;28;20024;-62
2021/03/05 06:33:27;;;;;;;27.52;9.73;;;;;;;-2.36;82.62;102630.84;5092512;28;20070;-60
2021/03/05 06:35:54;;;;;;;27.42;9.35;;;;;;;-2.37;82.82;102635.13;5094495;28;20344;-59
2021/03/05 06:38:39;;;;;;;26.75;10.00;;;;;;;-2.36;82.87;102638.59;5092598;28;20080;-62
2021/03/05 06:41:18;;;;;;;25.55;9.35;;;;;;;-2.33;82.59;102641.47;5092767;28;20372;-60
2021/03/05 06:43:58;;;;;;;25.55;9.40;;;;;;;-2.32;82.89;102636.41;5091964;28;20111;-64
2021/03/05 06:46:39;;;;;;;26.10;8.77;;;;;;;-2.31;82.61;102638.22;5090125;28;20111;-61
2021/03/05 06:49:14;;;;;;;26.10;10.00;;;;;;;-2.29;82.59;102643.53;5091235;28;20047;-60
2021/03/05 06:51:40;;;;;;;26.30;9.57;;;;;;;-2.26;83.00;102646.38;5091737;28;20051;-61
2021/03/05 06:54:10;;;;;;;25.45;9.60;;;;;;;-2.21;82.80;102658.06;5091161;28;20024;-61
2021/03/05 06:56:37;;;;;;;28.38;10.60;;;;;;;-2.19;82.91;102659.09;5092116;28;20024;-60
2021/03/05 06:59:10;;;;;;;26.40;9.63;;;;;;;-2.14;83.03;102665.59;5089756;28;20028;-60
2021/03/05 07:01:55;;;;;;;25.80;9.45;;;;;;;-2.08;81.96;102674.63;5090839;28;20024;-60
2021/03/05 07:04:23;;;;;;;24.38;8.98;;;;;;;-2.02;82.38;102685.56;5091461;28;20020;-61
2021/03/05 07:07:06;;;;;;;26.00;9.32;;;;;;;-2.00;82.22;102686.56;5092295;28;20032;-60
2021/03/05 07:09:34;;;;;;;27.65;9.73;;;;;;;-1.95;82.35;102690.47;5092868;28;20028;-61
2021/03/05 07:12:00;;;;;;;25.67;9.35;;;;;;;-1.89;81.63;102698.78;5092474;28;20047;-63
2021/03/05 07:14:28;;;;;;;25.65;8.77;;;;;;;-1.82;81.92;102695.91;5071288;28;20013;-62
2021/03/05 07:16:55;;;;;;;24.80;9.23;;;;;;;-1.68;81.04;102703.94;5071916;28;20012;-65
2021/03/05 07:19:22;;;;;;;26.40;9.10;;;;;;;-1.59;80.85;102710.81;5090332;28;20016;-62
2021/03/05 07:21:49;;;;;;;24.88;8.63;;;;;;;-1.45;80.74;102709.34;5091098;28;20024;-61
2021/03/05 07:24:16;;;;;;;24.45;8.85;;;;;;;-1.29;79.95;102706.34;5091222;28;20027;-62
2021/03/05 07:26:43;;;;;;;24.83;8.65;;;;;;;-1.15;79.95;102725.66;5091803;28;20024;-63
2021/03/05 07:29:17;;;;;;;23.70;8.05;;;;;;;-1.00;79.73;102717.31;5091035;28;20497;-61
2021/03/05 07:31:44;;;;;;;23.80;7.53;;;;;;;-0.91;78.45;102720.63;5092015;28;20042;-61
2021/03/05 07:34:16;;;;;;;23.65;7.85;;;;;;;-0.81;77.53;102732.69;5086788;28;20024;-61
2021/03/05 07:36:46;;;;;;;25.67;8.35;;;;;;;-0.66;77.86;102733.00;5091727;28;20035;-61
2021/03/05 07:39:17;;;;;;;23.35;7.50;;;;;;;-0.50;77.45;102725.63;5092369;28;20379;-61
2021/03/05 07:41:42;;;;;;;23.55;7.57;;;;;;;-0.34;75.33;102734.66;5093268;28;20073;-61
2021/03/05 07:44:08;;;;;;;21.70;7.10;;;;;;;-0.20;74.67;102747.03;5093355;28;20492;-61
2021/03/05 07:46:33;;;;;;;22.98;7.10;;;;;;;-0.09;74.20;102750.47;5089850;28;20035;-67
2021/03/05 07:49:00;;;;;;;20.55;6.50;;;;;;;-0.02;73.32;102748.44;5090082;28;20020;-63
2021/03/05 07:51:26;;;;;;;21.23;6.80;;;;;;;0.10;73.75;102752.81;5091388;28;20505;-70
2021/03/05 07:53:54;;;;;;;22.23;6.68;;;;;;;0.24;72.88;102748.69;5089580;28;20016;-71
2021/03/05 07:56:38;;;;;;;21.60;6.85;;;;;;;0.32;73.54;102753.69;5091696;28;20114;-71
2021/03/05 07:59:04;;;;;;;22.27;6.22;;;;;;;0.43;71.33;102761.41;5088631;28;20019;-72
2021/03/05 08:02:11;;;;;;;24.45;6.47;;;;;;;0.58;72.09;102757.34;5089758;28;20463;-71
2021/03/05 08:05:06;;;;;;;22.10;6.32;;;;;;;0.80;72.82;102753.75;5005268;28;20030;-67
2021/03/05 08:07:33;;;;;;;22.00;6.32;;;;;;;0.97;71.28;102762.81;5011129;28;20041;-68
2021/03/05 08:10:00;;;;;;;21.83;5.65;;;;;;;1.20;67.78;102759.31;5011995;28;20046;-70
2021/03/05 08:15:05;;;;;;;22.13;5.22;;;;;;;1.73;70.56;102762.28;5011151;28;20042;-69
2021/03/05 08:17:30;;;;;;;19.55;5.05;;;;;;;1.85;65.71;102763.91;5010996;28;20030;-70
2021/03/05 08:19:56;;;;;;;21.58;5.30;;;;;;;1.98;65.05;102771.81;5011966;28;20037;-69
2021/03/05 08:22:21;;;;;;;20.15;4.90;;;;;;;2.12;64.36;102769.25;5010905;28;20133;-70
2021/03/05 08:24:48;;;;;;;20.90;5.13;;;;;;;2.29;62.54;102778.25;5011180;28;20029;-70
2021/03/05 08:27:32;;;;;;;19.88;4.82;;;;;;;2.39;63.15;102781.59;5009748;28;20038;-72
2021/03/05 08:30:13;;;;;;;19.83;4.82;;;;;;;2.58;65.29;102778.53;5011568;28;20104;-69
2021/03/05 08:32:45;;;;;;;18.05;4.93;;;;;;;2.82;63.33;102782.69;5010950;28;20042;-71
2021/03/05 08:35:12;;;;;;;18.83;4.78;;;;;;;2.72;61.02;102792.53;5049050;28;20043;-70
2021/03/05 08:37:44;;;;;;;19.55;4.80;;;;;;;2.73;61.39;102794.34;5093361;28;20500;-69
2021/03/05 08:40:12;;;;;;;18.25;4.40;;;;;;;2.88;60.59;102793.56;5093450;28;20022;-70
2021/03/05 08:42:42;;;;;;;18.27;4.40;;;;;;;2.81;63.02;102791.34;5096125;28;20024;-70
2021/03/05 08:45:13;;;;;;;17.85;4.30;;;;;;;2.89;60.94;102798.00;5094651;28;20032;-71
2021/03/05 08:47:41;;;;;;;17.70;4.50;;;;;;;3.02;61.22;102800.59;5094232;28;20036;-71
2021/03/05 08:50:07;;;;;;;17.63;4.03;;;;;;;3.15;59.17;102794.50;5095160;28;20056;-67
2021/03/05 08:52:33;;;;;;;17.75;4.55;;;;;;;3.06;59.86;102794.78;5091368;28;20068;-70
2021/03/05 08:55:02;;;;;;;17.67;4.43;;;;;;;3.19;59.94;102800.81;5096368;28;20120;-70
2021/03/05 08:57:37;;;;;;;16.73;4.25;;;;;;;3.34;61.03;102795.69;5094519;28;20097;-71
2021/03/05 09:00:03;;;;;;;18.10;4.35;;;;;;;3.65;58.49;102794.22;5094440;28;20028;-71
2021/03/05 09:02:29;;;;;;;19.35;4.60;;;;;;;3.92;57.57;102799.41;5098536;28;20039;-69
2021/03/05 09:04:54;;;;;;;17.23;4.40;;;;;;;4.25;55.84;102809.25;5096150;28;20031;-71
2021/03/05 09:07:19;;;;;;;18.30;4.13;;;;;;;4.49;56.15;102810.75;5097161;28;20028;-67
2021/03/05 09:09:50;;;;;;;16.85;4.20;;;;;;;4.91;56.51;102812.31;5093744;28;20028;-68
2021/03/05 09:12:17;;;;;;;20.05;4.60;;;;;;;5.32;55.05;102816.47;5095362;28;20528;-67
2021/03/05 09:14:44;;;;;;;18.50;4.15;;;;;;;5.57;53.39;102821.38;5095579;28;20024;-70
2021/03/05 09:17:11;;;;;;;16.23;4.20;;;;;;;5.64;52.74;102820.00;5093463;28;20027;-71
2021/03/05 09:19:39;;;;;;;16.73;4.00;;;;;;;5.84;50.96;102816.75;5094735;28;20024;-68
2021/03/05 09:22:15;;;;;;;18.33;4.60;;;;;;;6.04;52.77;102827.47;5075554;28;20028;-68
2021/03/05 09:24:57;;;;;;;17.65;4.20;;;;;;;6.01;51.52;102819.44;5094809;28;20073;-71
2021/03/05 09:27:34;;;;;;;14.98;3.83;;;;;;;5.79;52.57;102810.34;5093254;28;20028;-70
2021/03/05 09:30:13;;;;;;;25.48;5.13;;;;;;;5.86;53.41;102820.38;5092536;28;20111;-68
2021/03/05 09:32:49;;;;;;;18.08;3.92;;;;;;;6.50;51.96;102824.69;5088913;28;20029;-69
2021/03/05 09:35:16;;;;;;;15.00;3.53;;;;;;;7.07;48.72;102813.56;5096757;28;20029;-69
2021/03/05 09:37:41;;;;;;;17.80;3.97;;;;;;;7.03;47.53;102817.75;5095380;28;20028;-69
2021/03/05 09:40:08;;;;;;;15.95;3.90;;;;;;;6.90;47.89;102817.97;5093822;28;20030;-69
2021/03/05 09:42:48;;;;;;;15.68;3.83;;;;;;;6.90;47.03;102826.78;5093807;28;20084;-64
2021/03/05 09:45:31;;;;;;;16.55;3.60;;;;;;;7.17;49.34;102828.97;5090602;28;20555;-65
2021/03/05 09:47:56;;;;;;;20.20;4.13;;;;;;;7.47;46.07;102820.78;5093552;28;20056;-64
2021/03/05 09:50:22;;;;;;;15.00;3.80;;;;;;;7.68;44.24;102834.97;5094233;28;20083;-63
2021/03/05 09:52:48;;;;;;;16.10;3.88;;;;;;;8.19;44.26;102833.81;5094425;28;20470;-66
2021/03/05 09:55:40;;;;;;;17.17;3.85;;;;;;;8.71;46.49;102840.56;5096598;28;20489;-64
2021/03/05 09:58:10;;;;;;;15.35;3.42;;;;;;;9.14;42.21;102834.47;5089697;28;20075;-66
2021/03/05 10:00:36;;;;;;;16.63;3.40;;;;;;;9.89;40.92;102833.09;5093373;28;20031;-64
2021/03/05 10:03:12;;;;;;;17.45;3.90;;;;;;;10.29;39.67;102837.22;5088330;28;20032;-63
2021/03/05 10:05:39;;;;;;;15.30;3.70;;;;;;;10.82;38.93;102832.13;5095919;28;20020;-63
2021/03/05 10:08:27;;;;;;;14.10;3.33;;;;;;;11.21;38.79;102838.69;5075097;28;20112;-64
2021/03/05 10:11:04;;;;;;;12.00;3.20;;;;;;;11.74;38.06;102836.91;5093125;28;20108;-63
2021/03/05 10:13:54;;;;;;;16.00;3.60;;;;;;;12.17;37.51;102843.53;5076015;28;20041;-62
2021/03/05 10:16:32;;;;;;;13.23;2.90;;;;;;;12.50;35.10;102837.38;5074622;28;20385;-64
2021/03/05 10:19:01;;;;;;;13.75;3.15;;;;;;;12.94;30.89;102830.59;5093917;28;20047;-64
2021/03/05 10:21:29;;;;;;;13.23;3.30;;;;;;;13.32;28.89;102833.31;5093020;28;20016;-64
2021/03/05 10:24:04;;;;;;;14.73;3.30;;;;;;;13.81;31.79;102839.81;5075898;28;20047;-70
2021/03/05 10:26:29;;;;;;;11.35;3.08;;;;;;;14.04;28.55;102835.03;5091728;28;20016;-66
2021/03/05 10:29:06;;;;;;;12.02;3.08;;;;;;;14.19;30.63;102834.44;5092602;28;20020;-66
2021/03/05 10:31:49;;;;;;;14.45;3.13;;;;;;;14.33;30.21;102834.75;5075228;28;20028;-66
2021/03/05 10:34:21;;;;;;;13.88;3.10;;;;;;;14.50;29.70;102835.06;5095137;28;20020;-65
2021/03/05 10:36:47;;;;;;;13.90;3.20;;;;;;;14.68;27.63;102838.97;5092205;28;20028;-65
2021/03/05 10:39:13;;;;;;;13.60;3.00;;;;;;;15.04;26.40;102825.41;5071615;28;20491;-65
2021/03/05 10:41:38;;;;;;;10.85;2.70;;;;;;;15.47;24.62;102827.91;5074122;28;20111;-68
2021/03/05 10:44:04;;;;;;;12.68;3.03;;;;;;;15.68;24.93;102838.91;5093638;28;20031;-69
2021/03/05 10:46:29;;;;;;;10.27;2.60;;;;;;;15.97;23.95;102841.09;5092111;28;20042;-64
2021/03/05 10:48:54;;;;;;;10.57;2.60;;;;;;;16.14;23.12;102851.09;5094033;28;20351;-66
2021/03/05 10:51:20;;;;;;;10.52;2.70;;;;;;;16.24;23.59;102845.00;5091965;28;20161;-66
2021/03/05 10:53:45;;;;;;;10.65;2.80;;;;;;;16.51;22.75;102844.44;5093076;28;20094;-65
2021/03/05 10:56:10;;;;;;;11.18;2.53;;;;;;;16.59;22.53;102847.19;5091782;28;20016;-64
2021/03/05 10:58:36;;;;;;;10.73;2.70;;;;;;;16.73;21.81;102848.25;5093679;28;20492;-65
2021/03/05 11:01:01;;;;;;;13.05;2.63;;;;;;;17.32;22.43;102846.13;5092389;28;20570;-67
2021/03/05 11:03:26;;;;;;;8.88;2.47;;;;;;;17.49;21.21;102851.59;5093121;28;20016;-64
2021/03/05 11:05:52;;;;;;;8.73;2.50;;;;;;;17.71;21.11;102851.75;5091825;28;20379;-64
2021/03/05 11:08:19;;;;;;;10.50;2.50;;;;;;;18.07;21.17;102848.44;5092215;28;20107;-64
2021/03/05 11:10:44;;;;;;;11.40;2.50;;;;;;;18.20;19.67;102851.13;5090252;28;20020;-63
2021/03/05 11:13:10;;;;;;;10.27;2.50;;;;;;;18.67;20.56;102860.22;5091987;28;20039;-64
2021/03/05 11:15:35;;;;;;;7.25;2.40;;;;;;;18.72;20.01;102858.47;5091239;28;20020;-65
2021/03/05 11:18:00;;;;;;;11.30;2.47;;;;;;;18.95;17.69;102866.56;5091793;28;20052;-64
2021/03/05 11:20:26;;;;;;;7.55;2.20;;;;;;;19.29;17.60;102864.78;5093849;28;20016;-65
2021/03/05 11:22:53;;;;;;;9.27;2.40;;;;;;;19.60;18.21;102866.53;5091726;28;20020;-66
2021/03/05 11:25:19;;;;;;;7.22;2.17;;;;;;;19.82;17.38;102868.34;5099117;28;20099;-67
2021/03/05 11:27:44;;;;;;;8.60;2.40;;;;;;;20.08;17.51;102872.75;5102058;28;20154;-65
2021/03/05 11:30:10;;;;;;;8.80;2.30;;;;;;;20.37;17.17;102869.03;5103900;28;20058;-64